createdAt,value
2023-02-03T00:00:05.138Z,1
2023-02-03T00:02:04.552Z,1
2023-02-03T00:04:11.339Z,1
2023-02-03T00:06:11.487Z,1
2023-02-03T00:08:08.132Z,1
2023-02-03T00:10:07.767Z,1
2023-02-03T00:12:04.506Z,1
2023-02-03T00:14:08.119Z,1
2023-02-03T00:16:04.447Z,1
2023-02-03T00:18:04.140Z,1
2023-02-03T00:20:07.994Z,1
2023-02-03T00:22:04.785Z,1
2023-02-03T00:24:03.865Z,1
2023-02-03T00:26:08.067Z,1
2023-02-03T00:28:05.060Z,1
2023-02-03T00:30:04.374Z,1
2023-02-03T00:32:04.203Z,1
2023-02-03T00:34:08.043Z,1
2023-02-03T00:36:04.362Z,1
2023-02-03T00:38:04.734Z,1
2023-02-03T00:40:16.964Z,1
2023-02-03T00:42:04.494Z,1
2023-02-03T00:44:08.056Z,1
2023-02-03T00:46:08.154Z,1
2023-02-03T00:48:04.649Z,1
2023-02-03T00:50:03.856Z,1
2023-02-03T00:52:04.547Z,1
2023-02-03T00:54:04.209Z,1
2023-02-03T00:56:03.995Z,1
2023-02-03T00:58:04.998Z,1
2023-02-03T01:00:04.238Z,1
2023-02-03T01:02:04.988Z,1
2023-02-03T01:04:04.870Z,1
2023-02-03T01:06:04.341Z,1
2023-02-03T01:08:04.116Z,1
2023-02-03T01:10:04.604Z,1
2023-02-03T01:12:03.996Z,1
2023-02-03T01:14:04.844Z,1
2023-02-03T01:16:04.864Z,1
2023-02-03T01:18:08.000Z,1
2023-02-03T01:20:05.125Z,1
2023-02-03T01:22:04.494Z,1
2023-02-03T01:24:04.613Z,1
2023-02-03T01:26:04.889Z,1
2023-02-03T01:28:04.426Z,1
2023-02-03T01:30:04.284Z,1
2023-02-03T01:32:11.111Z,1
2023-02-03T01:34:10.725Z,1
2023-02-03T01:36:04.080Z,1
2023-02-03T01:38:04.087Z,1
2023-02-03T01:40:05.230Z,1
2023-02-03T01:42:04.570Z,1
2023-02-03T01:44:01.905Z,1
2023-02-03T01:46:04.838Z,1
2023-02-03T01:48:08.157Z,1
2023-02-03T01:50:04.238Z,1
2023-02-03T01:52:07.583Z,1
2023-02-03T01:54:04.632Z,1
2023-02-03T01:56:04.515Z,1
2023-02-03T01:58:04.777Z,1
2023-02-03T02:00:11.525Z,1
2023-02-03T02:02:08.133Z,1
2023-02-03T02:04:04.665Z,1
2023-02-03T02:06:04.688Z,1
2023-02-03T02:08:04.185Z,1
2023-02-03T02:10:08.461Z,1
2023-02-03T02:12:07.893Z,1
2023-02-03T02:14:04.435Z,1
2023-02-03T02:16:07.583Z,1
2023-02-03T02:18:08.017Z,1
2023-02-03T02:20:04.437Z,1
2023-02-03T02:22:08.039Z,1
2023-02-03T02:24:06.269Z,1
2023-02-03T02:26:01.242Z,1
2023-02-03T02:28:04.760Z,1
2023-02-03T02:30:04.863Z,1
2023-02-03T02:32:04.918Z,1
2023-02-03T02:34:04.554Z,1
2023-02-03T02:36:04.745Z,1
2023-02-03T02:38:04.618Z,1
2023-02-03T02:40:11.319Z,1
2023-02-03T02:44:07.920Z,1
2023-02-03T02:46:07.926Z,1
2023-02-03T02:48:08.010Z,1
2023-02-03T02:50:01.998Z,1
2023-02-03T02:52:04.899Z,1
2023-02-03T02:54:04.260Z,1
2023-02-03T02:56:04.640Z,1
2023-02-03T02:58:03.949Z,1
2023-02-03T03:00:01.222Z,1
2023-02-03T03:02:08.125Z,1
2023-02-03T03:04:07.065Z,1
2023-02-03T03:06:04.582Z,1
2023-02-03T03:08:04.094Z,1
2023-02-03T03:10:11.203Z,1
2023-02-03T03:12:04.572Z,1
2023-02-03T03:14:07.869Z,1
2023-02-03T03:16:04.942Z,1
2023-02-03T03:18:04.649Z,1
2023-02-03T03:20:04.403Z,1
2023-02-03T03:22:04.242Z,1
2023-02-03T03:24:03.925Z,1
2023-02-03T03:26:03.992Z,1
2023-02-03T03:28:08.103Z,1
2023-02-03T03:30:04.737Z,1
2023-02-03T03:32:04.636Z,1
2023-02-03T03:34:04.473Z,1
2023-02-03T03:36:04.857Z,1
2023-02-03T03:38:04.085Z,1
2023-02-03T03:40:04.479Z,1
2023-02-03T03:42:07.442Z,1
2023-02-03T03:44:10.296Z,1
2023-02-03T03:46:03.953Z,1
2023-02-03T03:48:04.311Z,1
2023-02-03T03:50:11.178Z,1
2023-02-03T03:52:03.990Z,1
2023-02-03T03:54:04.417Z,1
2023-02-03T03:56:08.005Z,1
2023-02-03T03:58:03.962Z,1
2023-02-03T04:00:05.033Z,1
2023-02-03T04:02:04.994Z,1
2023-02-03T04:04:04.725Z,1
2023-02-03T04:06:07.971Z,1
2023-02-03T04:08:03.853Z,1
2023-02-03T04:10:04.646Z,1
2023-02-03T04:14:03.851Z,1
2023-02-03T04:16:04.596Z,1
2023-02-03T04:18:03.940Z,1
2023-02-03T04:20:04.001Z,1
2023-02-03T04:22:03.979Z,1
2023-02-03T04:24:04.013Z,1
2023-02-03T04:26:03.937Z,1
2023-02-03T04:28:04.056Z,1
2023-02-03T04:30:08.446Z,1
2023-02-03T04:32:07.960Z,1
2023-02-03T04:34:03.974Z,1
2023-02-03T04:36:04.501Z,1
2023-02-03T04:38:04.088Z,1
2023-02-03T04:40:04.368Z,1
2023-02-03T04:42:04.164Z,1
2023-02-03T04:44:03.958Z,1
2023-02-03T04:46:08.057Z,1
2023-02-03T04:48:04.756Z,1
2023-02-03T04:50:08.027Z,1
2023-02-03T04:52:08.078Z,1
2023-02-03T04:54:07.922Z,1
2023-02-03T04:56:04.701Z,1
2023-02-03T04:58:04.292Z,1
2023-02-03T05:00:04.712Z,1
2023-02-03T05:02:04.534Z,1
2023-02-03T05:04:04.679Z,1
2023-02-03T05:06:04.853Z,1
2023-02-03T05:08:04.601Z,1
2023-02-03T05:10:07.966Z,1
2023-02-03T05:12:07.936Z,1
2023-02-03T05:14:04.685Z,1
2023-02-03T05:16:04.205Z,1
2023-02-03T05:18:04.035Z,1
2023-02-03T05:20:04.979Z,1
2023-02-03T05:22:07.926Z,1
2023-02-03T05:24:04.645Z,1
2023-02-03T05:26:08.041Z,1
2023-02-03T05:28:04.584Z,1
2023-02-03T05:30:04.546Z,1
2023-02-03T05:32:04.733Z,1
2023-02-03T05:34:04.609Z,1
2023-02-03T05:36:03.947Z,1
2023-02-03T05:38:05.008Z,1
2023-02-03T05:40:04.769Z,1
2023-02-03T05:42:07.862Z,1
2023-02-03T05:44:04.664Z,1
2023-02-03T05:46:03.662Z,1
2023-02-03T05:48:04.681Z,1
2023-02-03T05:50:04.455Z,1
2023-02-03T05:52:04.669Z,1
2023-02-03T05:54:07.241Z,1
2023-02-03T05:56:03.992Z,1
2023-02-03T05:58:04.005Z,1
2023-02-03T06:00:08.066Z,1
2023-02-03T06:02:04.523Z,0
2023-02-03T06:04:08.088Z,0
2023-02-03T06:06:08.076Z,0
2023-02-03T06:10:11.291Z,0.1
2023-02-03T06:12:04.556Z,0.2
2023-02-03T06:14:03.953Z,0.3
2023-02-03T06:16:04.121Z,0.4
2023-02-03T06:18:04.557Z,0.4
2023-02-03T06:20:04.583Z,0.8
2023-02-03T06:22:08.073Z,1.3
2023-02-03T06:24:04.181Z,1.9
2023-02-03T06:28:07.920Z,3.3
2023-02-03T06:30:03.982Z,5
2023-02-03T06:32:04.267Z,6.4
2023-02-03T06:34:04.796Z,7.4
2023-02-03T06:38:08.092Z,12.2
2023-02-03T06:40:04.228Z,19.1
2023-02-03T06:42:04.619Z,20.1
2023-02-03T06:44:04.698Z,21.1
2023-02-03T06:46:04.135Z,24.5
2023-02-03T06:48:07.668Z,42.5
2023-02-03T06:50:03.968Z,51.9
2023-02-03T06:52:04.878Z,44.7
2023-02-03T06:54:07.795Z,42.5
2023-02-03T06:56:03.978Z,47
2023-02-03T06:58:04.976Z,60.3
2023-02-03T07:00:04.245Z,77.5
2023-02-03T07:02:08.033Z,99.5
2023-02-03T07:04:07.600Z,109.9
2023-02-03T07:06:04.345Z,172.4
2023-02-03T07:08:11.258Z,210.6
2023-02-03T07:10:07.989Z,232.8
2023-02-03T07:12:04.315Z,244.7
2023-02-03T07:14:03.993Z,330.3
2023-02-03T07:16:04.580Z,347.2
2023-02-03T07:18:04.631Z,468.7
2023-02-03T07:20:11.240Z,424.1
2023-02-03T07:22:04.780Z,365
2023-02-03T07:24:04.615Z,314.2
2023-02-03T07:26:04.632Z,365
2023-02-03T07:28:04.188Z,518
2023-02-03T07:30:11.287Z,632.7
2023-02-03T07:32:04.810Z,772.8
2023-02-03T07:34:08.067Z,632.7
2023-02-03T07:36:08.139Z,572.5
2023-02-03T07:38:04.601Z,544.6
2023-02-03T07:40:04.387Z,468.7
2023-02-03T07:42:11.119Z,468.7
2023-02-03T07:44:08.005Z,665.1
2023-02-03T07:46:05.155Z,812.4
2023-02-03T07:48:04.004Z,665.1
2023-02-03T07:50:04.987Z,518
2023-02-03T07:52:04.928Z,601.8
2023-02-03T07:54:04.289Z,772.8
2023-02-03T07:58:11.265Z,544.6
2023-02-03T08:00:04.386Z,518
2023-02-03T08:02:04.096Z,632.7
2023-02-03T08:04:04.079Z,735.1
2023-02-03T08:06:01.374Z,632.7
2023-02-03T08:08:07.965Z,665.1
2023-02-03T08:10:04.443Z,601.8
2023-02-03T08:12:03.940Z,492.7
2023-02-03T08:14:07.776Z,632.7
2023-02-03T08:18:04.633Z,518
2023-02-03T08:22:08.214Z,699.2
2023-02-03T08:24:04.690Z,735.1
2023-02-03T08:26:04.022Z,943.9
2023-02-03T08:28:11.297Z,812.4
2023-02-03T08:30:05.044Z,772.8
2023-02-03T08:32:05.358Z,665.1
2023-02-03T08:34:04.507Z,735.1
2023-02-03T08:36:04.117Z,772.8
2023-02-03T08:38:04.466Z,1043.1
2023-02-03T08:40:04.662Z,992.3
2023-02-03T08:42:04.267Z,854.1
2023-02-03T08:44:01.869Z,854.1
2023-02-03T08:46:04.703Z,735.1
2023-02-03T08:48:10.856Z,772.8
2023-02-03T08:50:07.976Z,854.1
2023-02-03T08:52:03.910Z,854.1
2023-02-03T08:54:07.846Z,1274.1
2023-02-03T08:56:03.993Z,1043.1
2023-02-03T08:58:07.835Z,1043.1
2023-02-03T09:00:04.507Z,1096.6
2023-02-03T09:02:04.038Z,1152.9
2023-02-03T09:04:04.228Z,1212
2023-02-03T09:06:03.938Z,1152.9
2023-02-03T09:08:11.141Z,992.3
2023-02-03T09:10:05.059Z,1212
2023-02-03T09:12:04.197Z,1152.9
2023-02-03T09:14:06.064Z,1339.4
2023-02-03T09:16:03.961Z,1480.3
2023-02-03T09:18:04.541Z,1556.2
2023-02-03T09:20:04.579Z,1719.9
2023-02-03T09:22:04.237Z,2100.6
2023-02-03T09:24:03.889Z,1998.2
2023-02-03T09:26:07.179Z,1719.9
2023-02-03T09:28:04.106Z,1556.2
2023-02-03T09:30:05.122Z,1998.2
2023-02-03T09:32:03.989Z,1636
2023-02-03T09:34:04.714Z,1636
2023-02-03T09:36:04.590Z,1808
2023-02-03T09:38:08.181Z,1900.7
2023-02-03T09:40:04.714Z,1556.2
2023-02-03T09:42:04.186Z,1480.3
2023-02-03T09:44:04.384Z,1339.4
2023-02-03T09:46:08.492Z,1480.3
2023-02-03T09:48:04.875Z,1636
2023-02-03T09:50:04.054Z,1556.2
2023-02-03T09:52:07.334Z,1339.4
2023-02-03T09:54:04.626Z,1212
2023-02-03T09:56:07.976Z,1339.4
2023-02-03T09:58:04.818Z,1339.4
2023-02-03T10:00:04.111Z,1636
2023-02-03T10:02:07.966Z,1339.4
2023-02-03T10:04:04.017Z,1480.3
2023-02-03T10:06:04.953Z,1556.2
2023-02-03T10:08:03.967Z,1480.3
2023-02-03T10:10:01.312Z,1408.1
2023-02-03T10:12:07.826Z,1480.3
2023-02-03T10:14:04.999Z,1408.1
2023-02-03T10:16:04.919Z,1212
2023-02-03T10:20:04.450Z,2565.7
2023-02-03T10:22:03.960Z,2440.6
2023-02-03T10:24:04.915Z,2100.6
2023-02-03T10:26:04.000Z,3133.8
2023-02-03T10:28:04.202Z,2100.6
2023-02-03T10:30:04.107Z,1808
2023-02-03T10:32:04.245Z,1900.7
2023-02-03T10:34:04.929Z,1636
2023-02-03T10:36:04.225Z,1636
2023-02-03T10:38:04.110Z,1719.9
2023-02-03T10:40:04.940Z,1556.2
2023-02-03T10:42:08.018Z,1480.3
2023-02-03T10:44:04.644Z,1408.1
2023-02-03T10:46:04.764Z,1408.1
2023-02-03T10:48:04.503Z,1212
2023-02-03T10:50:03.967Z,1556.2
2023-02-03T10:52:04.059Z,1636
2023-02-03T10:54:04.605Z,1636
2023-02-03T10:56:08.158Z,1808
2023-02-03T10:58:04.116Z,1900.7
2023-02-03T11:00:04.245Z,2208.3
2023-02-03T11:02:08.113Z,1998.2
2023-02-03T11:04:04.583Z,1900.7
2023-02-03T11:06:08.007Z,1900.7
2023-02-03T11:08:04.818Z,1998.2
2023-02-03T11:10:08.465Z,2697.3
2023-02-03T11:12:03.959Z,2321.6
2023-02-03T11:14:04.468Z,2565.7
2023-02-03T11:16:04.664Z,2697.3
2023-02-03T11:18:04.341Z,3294.5
2023-02-03T11:20:11.185Z,2981
2023-02-03T11:22:04.000Z,3463.4
2023-02-03T11:24:04.496Z,5710.1
2023-02-03T11:26:08.028Z,10404.6
2023-02-03T11:28:04.758Z,7707.9
2023-02-03T11:30:04.019Z,12088.4
2023-02-03T11:32:07.672Z,5431.7
2023-02-03T11:36:04.294Z,4914.8
2023-02-03T11:38:05.108Z,3827.6
2023-02-03T11:40:04.147Z,5431.7
2023-02-03T11:42:04.254Z,4023.9
2023-02-03T11:44:04.077Z,2835.6
2023-02-03T11:46:04.917Z,2208.3
2023-02-03T11:48:04.291Z,2697.3
2023-02-03T11:50:04.077Z,2440.6
2023-02-03T11:52:04.304Z,2208.3
2023-02-03T11:54:04.655Z,1556.2
2023-02-03T11:56:07.586Z,1556.2
2023-02-03T11:58:04.617Z,1408.1
2023-02-03T12:00:02.165Z,1408.1
2023-02-03T12:04:04.731Z,1719.9
2023-02-03T12:06:04.220Z,1719.9
2023-02-03T12:08:04.611Z,1556.2
2023-02-03T12:10:04.561Z,2100.6
2023-02-03T12:12:04.994Z,1719.9
2023-02-03T12:14:11.106Z,1636
2023-02-03T12:16:04.957Z,1719.9
2023-02-03T12:18:06.218Z,1808
2023-02-03T12:20:07.867Z,1900.7
2023-02-03T12:22:11.258Z,1556.2
2023-02-03T12:24:05.218Z,1408.1
2023-02-03T12:26:08.207Z,1556.2
2023-02-03T12:28:01.443Z,1636
2023-02-03T12:30:04.648Z,1719.9
2023-02-03T12:32:04.671Z,1636
2023-02-03T12:34:04.201Z,1808
2023-02-03T12:36:05.072Z,1808
2023-02-03T12:38:04.870Z,2100.6
2023-02-03T12:40:04.817Z,1998.2
2023-02-03T12:44:04.525Z,2100.6
2023-02-03T12:46:04.305Z,2208.3
2023-02-03T12:48:11.147Z,1998.2
2023-02-03T12:50:07.958Z,1480.3
2023-02-03T12:52:07.235Z,1408.1
2023-02-03T12:54:04.086Z,1408.1
2023-02-03T12:56:04.754Z,1339.4
2023-02-03T12:58:11.265Z,1480.3
2023-02-03T13:00:11.605Z,1408.1
2023-02-03T13:02:07.675Z,1152.9
2023-02-03T13:04:04.282Z,943.9
2023-02-03T13:06:04.093Z,897.8
2023-02-03T13:08:04.668Z,943.9
2023-02-03T13:10:04.275Z,897.8
2023-02-03T13:12:04.092Z,854.1
2023-02-03T13:14:04.382Z,943.9
2023-02-03T13:16:08.260Z,812.4
2023-02-03T13:18:11.264Z,943.9
2023-02-03T13:22:05.045Z,699.2
2023-02-03T13:24:04.666Z,735.1
2023-02-03T13:26:04.781Z,699.2
2023-02-03T13:28:04.120Z,772.8
2023-02-03T13:30:04.593Z,699.2
2023-02-03T13:32:08.203Z,699.2
2023-02-03T13:34:08.008Z,572.5
2023-02-03T13:36:08.196Z,601.8
2023-02-03T13:38:04.959Z,601.8
2023-02-03T13:40:08.339Z,572.5
2023-02-03T13:42:04.213Z,572.5
2023-02-03T13:44:04.338Z,544.6
2023-02-03T13:46:04.276Z,632.7
2023-02-03T13:48:04.082Z,665.1
2023-02-03T13:50:11.560Z,665.1
2023-02-03T13:52:08.039Z,735.1
2023-02-03T13:54:08.122Z,665.1
2023-02-03T13:56:04.947Z,665.1
2023-02-03T13:58:11.471Z,601.8
2023-02-03T14:00:04.917Z,572.5
2023-02-03T14:02:04.874Z,518
2023-02-03T14:04:04.482Z,544.6
2023-02-03T14:06:08.110Z,518
2023-02-03T14:08:04.486Z,492.7
2023-02-03T14:10:04.863Z,518
2023-02-03T14:12:05.078Z,445.9
2023-02-03T14:14:04.882Z,424.1
2023-02-03T14:16:08.042Z,403.4
2023-02-03T14:18:04.080Z,365
2023-02-03T14:20:04.104Z,347.2
2023-02-03T14:22:04.218Z,365
2023-02-03T14:24:07.745Z,383.8
2023-02-03T14:26:07.986Z,424.1
2023-02-03T14:28:07.677Z,445.9
2023-02-03T14:30:07.788Z,424.1
2023-02-03T14:32:04.866Z,445.9
2023-02-03T14:36:04.017Z,518
2023-02-03T14:38:04.572Z,544.6
2023-02-03T14:40:10.520Z,518
2023-02-03T14:42:05.034Z,518
2023-02-03T14:44:04.794Z,518
2023-02-03T14:46:10.536Z,468.7
2023-02-03T14:48:08.058Z,424.1
2023-02-03T14:50:05.048Z,445.9
2023-02-03T14:52:04.619Z,424.1
2023-02-03T14:54:04.620Z,403.4
2023-02-03T14:56:04.330Z,403.4
2023-02-03T14:58:04.656Z,445.9
2023-02-03T15:00:08.146Z,468.7
2023-02-03T15:02:08.192Z,445.9
2023-02-03T15:04:04.772Z,468.7
2023-02-03T15:06:04.100Z,403.4
2023-02-03T15:08:04.552Z,284.3
2023-02-03T15:10:04.145Z,244.7
2023-02-03T15:14:04.957Z,221.4
2023-02-03T15:18:08.062Z,200.3
2023-02-03T15:20:04.618Z,181.3
2023-02-03T15:22:08.050Z,148.4
2023-02-03T15:24:08.096Z,156
2023-02-03T15:26:04.566Z,148.4
2023-02-03T15:28:04.156Z,148.4
2023-02-03T15:30:04.570Z,134.3
2023-02-03T15:32:08.075Z,121.5
2023-02-03T15:34:04.716Z,109.9
2023-02-03T15:36:07.839Z,109.9
2023-02-03T15:38:07.961Z,115.6
2023-02-03T15:40:04.882Z,104.6
2023-02-03T15:42:04.097Z,94.6
2023-02-03T15:44:08.242Z,81.5
2023-02-03T15:46:04.787Z,73.7
2023-02-03T15:48:04.629Z,66.7
2023-02-03T15:50:07.990Z,57.4
2023-02-03T15:52:08.092Z,54.6
2023-02-03T15:54:04.580Z,51.9
2023-02-03T15:56:04.748Z,60.3
2023-02-03T16:00:05.177Z,47
2023-02-03T16:02:04.947Z,42.5
2023-02-03T16:04:08.042Z,40.4
2023-02-03T16:06:04.050Z,34.8
2023-02-03T16:08:03.976Z,31.5
2023-02-03T16:10:11.322Z,25.8
2023-02-03T16:12:08.157Z,21.1
2023-02-03T16:14:04.060Z,19.1
2023-02-03T16:16:04.152Z,16.4
2023-02-03T16:18:04.537Z,13.5
2023-02-03T16:20:04.081Z,11.6
2023-02-03T16:22:04.156Z,8.2
2023-02-03T16:24:07.838Z,6
2023-02-03T16:26:07.992Z,4.3
2023-02-03T16:28:05.223Z,3.2
2023-02-03T16:30:04.125Z,2.5
2023-02-03T16:32:04.577Z,1.9
2023-02-03T16:34:05.153Z,1.3
2023-02-03T16:36:04.917Z,0.9
2023-02-03T16:38:03.975Z,0.7
2023-02-03T16:40:04.772Z,0.4
2023-02-03T16:42:07.514Z,0.3
2023-02-03T16:44:04.936Z,0.3
2023-02-03T16:46:08.251Z,0.2
2023-02-03T16:48:04.276Z,0.2
2023-02-03T16:50:04.141Z,0.1
2023-02-03T16:52:04.310Z,0
2023-02-03T16:54:04.769Z,0
2023-02-03T16:58:04.038Z,0
2023-02-03T17:00:07.580Z,1
2023-02-03T17:02:04.212Z,1
2023-02-03T17:04:05.026Z,1
2023-02-03T17:06:04.623Z,1
2023-02-03T17:08:04.052Z,1
2023-02-03T17:10:04.940Z,1
2023-02-03T17:12:04.420Z,1
2023-02-03T17:14:05.080Z,1
2023-02-03T17:16:05.113Z,1
2023-02-03T17:18:04.978Z,1
2023-02-03T17:20:04.477Z,1
2023-02-03T17:22:04.331Z,1
2023-02-03T17:24:04.572Z,1
2023-02-03T17:26:07.707Z,1
2023-02-03T17:28:11.462Z,1
2023-02-03T17:30:05.203Z,1
2023-02-03T17:34:04.584Z,1
2023-02-03T17:36:08.485Z,1
2023-02-03T17:38:04.585Z,1
2023-02-03T17:54:04.054Z,1
2023-02-03T17:56:04.102Z,1
2023-02-03T17:58:04.246Z,1
2023-02-03T18:00:04.816Z,1
2023-02-03T18:02:04.313Z,1
2023-02-03T18:04:04.083Z,1
2023-02-03T18:06:06.718Z,1
2023-02-03T18:10:07.970Z,1
2023-02-03T18:12:04.594Z,1
2023-02-03T18:14:04.264Z,1
2023-02-03T18:16:04.064Z,1
2023-02-03T18:18:04.042Z,1
2023-02-03T18:20:04.891Z,1
2023-02-03T18:22:04.138Z,1
2023-02-03T18:24:04.908Z,1
2023-02-03T18:26:04.058Z,1
2023-02-03T18:28:04.604Z,1
2023-02-03T18:30:11.400Z,1
2023-02-03T18:34:21.995Z,1
2023-02-03T18:36:22.692Z,1
2023-02-03T18:38:19.158Z,1
2023-02-03T18:40:18.623Z,1
2023-02-03T18:42:19.294Z,1
2023-02-03T18:44:22.815Z,1
2023-02-03T18:46:19.344Z,0.1
2023-02-03T18:48:19.392Z,0.1
2023-02-03T18:50:22.419Z,0.1
2023-02-03T18:52:18.797Z,0.1
2023-02-03T18:54:19.409Z,0.1
2023-02-03T18:56:22.660Z,0.1
2023-02-03T18:58:18.646Z,0.1
2023-02-03T19:00:19.117Z,0.1
2023-02-03T19:02:18.640Z,0.1
2023-02-03T19:04:18.558Z,0.1
2023-02-03T19:06:18.669Z,0.1
2023-02-03T19:08:18.757Z,0.1
2023-02-03T19:10:20.070Z,0.1
2023-02-03T19:12:18.464Z,0.1
2023-02-03T19:14:18.980Z,0.1
2023-02-03T19:16:18.639Z,0.1
2023-02-03T19:18:25.791Z,0.1
2023-02-03T19:20:22.723Z,0.1
2023-02-03T19:22:19.127Z,0.1
2023-02-03T19:24:19.251Z,0.1
2023-02-03T19:26:18.922Z,0.1
2023-02-03T19:28:29.802Z,0.1
2023-02-03T19:30:18.511Z,0.1
2023-02-03T19:32:19.383Z,0.1
2023-02-03T19:34:27.542Z,0.1
2023-02-03T19:36:18.987Z,0.1
2023-02-03T19:38:22.440Z,0.1
2023-02-03T19:40:22.770Z,0.1
2023-02-03T19:42:19.090Z,0.1
2023-02-03T19:44:19.159Z,0.1
2023-02-03T19:46:18.515Z,0.1
2023-02-03T19:48:18.712Z,0.1
2023-02-03T19:50:25.834Z,0.1
2023-02-03T19:52:19.102Z,0.1
2023-02-03T19:54:19.220Z,0.1
2023-02-03T19:56:22.215Z,0.1
2023-02-03T19:58:19.026Z,0.1
2023-02-03T20:00:22.713Z,1
2023-02-03T20:02:19.159Z,1
2023-02-03T20:04:18.645Z,1
2023-02-03T20:06:18.636Z,1
2023-02-03T20:08:22.730Z,1
2023-02-03T20:12:16.884Z,1
2023-02-03T20:14:19.184Z,1
2023-02-03T20:16:22.748Z,1
2023-02-03T20:18:18.458Z,1
2023-02-03T20:20:24.828Z,1
2023-02-03T20:22:19.267Z,1
2023-02-03T20:24:18.850Z,1
2023-02-03T20:26:18.469Z,1
2023-02-03T20:28:19.280Z,1
2023-02-03T20:30:19.023Z,1
2023-02-03T20:32:22.525Z,1
2023-02-03T20:34:22.646Z,1
2023-02-03T20:36:18.594Z,1
2023-02-03T20:38:18.513Z,1
2023-02-03T20:40:22.522Z,1
2023-02-03T20:42:19.147Z,1
2023-02-03T20:44:18.599Z,1
2023-02-03T20:46:18.763Z,1
2023-02-03T20:48:18.479Z,1
2023-02-03T20:50:18.549Z,1
2023-02-03T20:52:23.999Z,1
2023-02-03T20:54:18.968Z,1
2023-02-03T20:56:18.511Z,1
2023-02-03T20:58:22.616Z,1
2023-02-03T21:00:19.047Z,1
2023-02-03T21:02:25.808Z,1
2023-02-03T21:04:22.710Z,1
2023-02-03T21:06:18.508Z,1
2023-02-03T21:08:18.854Z,1
2023-02-03T21:10:23.636Z,1
2023-02-03T21:12:19.220Z,1
2023-02-03T21:14:18.479Z,1
2023-02-03T21:16:20.107Z,1
2023-02-03T21:18:18.482Z,1
2023-02-03T21:20:18.485Z,1
2023-02-03T21:22:18.815Z,1
2023-02-03T21:24:18.604Z,1
2023-02-03T21:28:18.642Z,1
2023-02-03T21:30:22.481Z,1
2023-02-03T21:32:22.198Z,1
2023-02-03T21:34:19.068Z,1
2023-02-03T21:36:18.615Z,1
2023-02-03T21:38:18.487Z,1
2023-02-03T21:40:20.153Z,1
2023-02-03T21:42:18.625Z,1
2023-02-03T21:46:21.989Z,1
2023-02-03T21:48:22.517Z,1
2023-02-03T21:50:18.894Z,1
2023-02-03T21:52:18.588Z,1
2023-02-03T21:54:18.564Z,1
2023-02-03T21:56:25.839Z,1
2023-02-03T21:58:22.101Z,1
2023-02-03T22:00:25.822Z,1
2023-02-03T22:02:18.986Z,1
2023-02-03T22:04:18.502Z,1
2023-02-03T22:06:18.582Z,1
2023-02-03T22:08:18.485Z,1
2023-02-03T22:10:18.640Z,1
2023-02-03T22:12:18.562Z,1
2023-02-03T22:14:19.219Z,1
2023-02-03T22:16:22.778Z,1
2023-02-03T22:18:22.396Z,1
2023-02-03T22:20:22.539Z,1
2023-02-03T22:22:18.948Z,1
2023-02-03T22:24:22.710Z,1
2023-02-03T22:26:22.325Z,1
2023-02-03T22:28:18.863Z,1
2023-02-03T22:30:18.715Z,1
2023-02-03T22:32:22.275Z,1
2023-02-03T22:34:18.777Z,1
2023-02-03T22:36:19.318Z,1
2023-02-03T22:38:22.356Z,1
2023-02-03T22:40:19.373Z,1
2023-02-03T22:42:18.897Z,1
2023-02-03T22:44:19.351Z,1
2023-02-03T22:46:25.881Z,1
2023-02-03T22:48:19.281Z,1
2023-02-03T22:50:34.586Z,1
2023-02-03T22:52:19.178Z,1
2023-02-03T22:56:19.033Z,1
2023-02-03T22:58:19.482Z,1
2023-02-03T23:00:25.949Z,1
2023-02-03T23:04:18.504Z,1
2023-02-03T23:06:18.958Z,1
2023-02-03T23:08:18.622Z,1
2023-02-03T23:10:22.329Z,1
2023-02-03T23:12:19.204Z,1
2023-02-03T23:16:18.807Z,1
2023-02-03T23:20:18.601Z,1
2023-02-03T23:22:19.284Z,1
2023-02-03T23:24:20.713Z,1
2023-02-03T23:26:18.936Z,1
2023-02-03T23:28:18.566Z,1
2023-02-03T23:30:26.300Z,1
2023-02-03T23:32:18.908Z,1
2023-02-03T23:34:19.146Z,1
2023-02-03T23:36:20.359Z,1
2023-02-03T23:38:19.096Z,1
2023-02-03T23:40:18.617Z,1
2023-02-03T23:44:19.070Z,1
2023-02-03T23:46:25.645Z,1
2023-02-03T23:48:19.078Z,1
2023-02-03T23:50:19.126Z,1
2023-02-03T23:52:22.453Z,1
2023-02-03T23:54:18.586Z,1
2023-02-03T23:56:22.612Z,1
2023-02-03T23:58:22.519Z,1
